createdAt,value
2023-03-12T00:02:38.013Z,100119.69
2023-03-12T00:05:41.145Z,100116.97
2023-03-12T00:08:42.956Z,100125.31
2023-03-12T00:11:44.513Z,100124.63
2023-03-12T00:14:46.021Z,100117.53
2023-03-12T00:17:47.666Z,100124.16
2023-03-12T00:20:56.259Z,100129.59
2023-03-12T00:23:57.873Z,100129.75
2023-03-12T00:26:59.377Z,100122.81
2023-03-12T00:30:00.893Z,100126.56
2023-03-12T00:33:02.437Z,100129.44
2023-03-12T00:36:04.511Z,100143.03
2023-03-12T00:39:06.265Z,100129.81
2023-03-12T00:42:07.857Z,100129.81
2023-03-12T00:45:09.752Z,100127.44
2023-03-12T00:48:11.256Z,100125.72
2023-03-12T00:51:12.833Z,100118.63
2023-03-12T00:54:14.339Z,100110.63
2023-03-12T00:57:15.908Z,100111.66
2023-03-12T01:00:17.855Z,100113.53
2023-03-12T01:03:19.857Z,100115.38
2023-03-12T01:06:21.526Z,100114.72
2023-03-12T01:09:23.346Z,100115.75
2023-03-12T01:12:26.367Z,100113.22
2023-03-12T01:15:28.627Z,100113.38
2023-03-12T01:18:30.255Z,100109.63
2023-03-12T01:21:32.070Z,100102.66
2023-03-12T01:24:33.642Z,100104.53
2023-03-12T01:27:35.181Z,100102.03
2023-03-12T01:30:36.808Z,100103.03
2023-03-12T01:33:39.431Z,100103.22
2023-03-12T01:36:41.351Z,100101.50
2023-03-12T01:39:42.861Z,100087.25
2023-03-12T01:42:52.218Z,100089.97
2023-03-12T01:46:12.131Z,100084.72
2023-03-12T01:49:24.022Z,100087.59
2023-03-12T01:52:36.270Z,100078.59
2023-03-12T01:55:38.687Z,100082.53
2023-03-12T01:58:45.096Z,100081.50
2023-03-12T02:01:47.355Z,100082.69
2023-03-12T02:04:52.507Z,100079.13
2023-03-12T02:07:55.024Z,100072.19
2023-03-12T02:10:56.492Z,100071.34
2023-03-12T02:13:58.150Z,100068.63
2023-03-12T02:17:00.519Z,100063.34
2023-03-12T02:20:20.346Z,100075.25
2023-03-12T02:23:33.498Z,100063.53
2023-03-12T02:26:37.905Z,100062.03
2023-03-12T02:29:42.068Z,100062.03
2023-03-12T02:32:45.657Z,100065.75
2023-03-12T02:35:48.133Z,100058.63
2023-03-12T02:38:52.026Z,100063.22
2023-03-12T02:41:57.750Z,100062.38
2023-03-12T02:45:00.409Z,100063.34
2023-03-12T02:48:02.898Z,100057.25
2023-03-12T02:51:04.600Z,100066.41
2023-03-12T02:54:06.424Z,100052.84
2023-03-12T02:57:08.314Z,100054.88
2023-03-12T03:00:12.399Z,100056.59
2023-03-12T03:03:15.926Z,100055.06
2023-03-12T03:06:18.285Z,100055.06
2023-03-12T03:09:22.336Z,100055.06
2023-03-12T03:12:24.636Z,100054.41
2023-03-12T03:15:27.109Z,100059.81
2023-03-12T03:18:30.195Z,100052.69
2023-03-12T03:21:32.203Z,100051.84
2023-03-12T03:24:36.047Z,100062.69
2023-03-12T03:27:37.655Z,100053.88
2023-03-12T03:30:39.811Z,100056.59
2023-03-12T03:33:43.303Z,100051.34
2023-03-12T03:36:47.476Z,100054.22
2023-03-12T03:39:50.884Z,100063.41
2023-03-12T03:42:52.564Z,100057.97
2023-03-12T03:45:59.806Z,100062.38
2023-03-12T03:49:02.116Z,100062.56
2023-03-12T03:52:04.700Z,100060.84
2023-03-12T03:55:10.280Z,100056.47
2023-03-12T03:58:12.262Z,100058.34
2023-03-12T04:01:14.900Z,100051.19
2023-03-12T04:04:17.642Z,100056.81
2023-03-12T04:07:19.462Z,100054.25
2023-03-12T04:10:22.040Z,100059.53
2023-03-12T04:13:23.981Z,100058.00
2023-03-12T04:16:26.199Z,100061.56
2023-03-12T04:19:29.234Z,100062.56
2023-03-12T04:22:30.822Z,100056.28
2023-03-12T04:25:32.698Z,100059.19
2023-03-12T04:28:35.412Z,100068.19
2023-03-12T04:31:37.640Z,100054.78
2023-03-12T04:34:39.253Z,100053.09
2023-03-12T04:37:41.560Z,100052.25
2023-03-12T04:40:43.964Z,100056.81
2023-03-12T04:43:45.671Z,100062.25
2023-03-12T04:46:48.394Z,100054.09
2023-03-12T04:49:53.803Z,100052.41
2023-03-12T04:52:55.694Z,100058.88
2023-03-12T04:55:57.531Z,100057.00
2023-03-12T04:58:59.169Z,100054.44
2023-03-12T05:02:02.551Z,100050.72
2023-03-12T05:05:06.778Z,100063.44
2023-03-12T05:08:09.768Z,100064.47
2023-03-12T05:11:11.585Z,100054.63
2023-03-12T05:14:13.399Z,100058.34
2023-03-12T05:17:15.990Z,100053.13
2023-03-12T05:20:17.736Z,100045.13
2023-03-12T05:23:21.301Z,100047.00
2023-03-12T05:26:26.188Z,100041.38
2023-03-12T05:29:35.407Z,100034.09
2023-03-12T05:32:38.604Z,100035.13
2023-03-12T05:35:40.243Z,100040.72
2023-03-12T05:38:42.690Z,100032.75
2023-03-12T05:41:45.596Z,100031.91
2023-03-12T05:44:52.419Z,100029.19
2023-03-12T05:47:56.157Z,100012.91
2023-03-12T05:50:57.748Z,100015.63
2023-03-12T05:53:59.428Z,99997.63
2023-03-12T05:57:03.003Z,100008.47
2023-03-12T06:00:05.445Z,99998.66
2023-03-12T06:03:16.068Z,100002.41
2023-03-12T06:06:18.996Z,99997.97
2023-03-12T06:09:20.497Z,99999.84
2023-03-12T06:12:21.994Z,99996.09
2023-03-12T06:15:24.127Z,99984.41
2023-03-12T06:18:25.717Z,99974.56
2023-03-12T06:21:30.778Z,99968.94
2023-03-12T06:24:32.867Z,99977.44
2023-03-12T06:27:37.756Z,99964.06
2023-03-12T06:30:39.283Z,99959.66
2023-03-12T06:33:41.129Z,99965.91
2023-03-12T06:36:42.600Z,99962.34
2023-03-12T06:39:44.211Z,99957.97
2023-03-12T06:42:45.659Z,99957.97
2023-03-12T06:45:47.126Z,99958.13
2023-03-12T06:48:49.051Z,99958.13
2023-03-12T06:51:50.719Z,99949.97
2023-03-12T06:54:52.319Z,99937.25
2023-03-12T06:57:53.768Z,99946.06
2023-03-12T07:00:55.587Z,99946.91
2023-03-12T07:03:57.130Z,99947.78
2023-03-12T07:06:58.625Z,99942.53
2023-03-12T07:10:00.098Z,99937.09
2023-03-12T07:13:01.769Z,99937.94
2023-03-12T07:16:04.060Z,99939.81
2023-03-12T07:19:05.547Z,99941.47
2023-03-12T07:22:07.063Z,99937.94
2023-03-12T07:25:09.759Z,99927.06
2023-03-12T07:28:12.329Z,99917.06
2023-03-12T07:31:13.864Z,99906.56
2023-03-12T07:34:15.546Z,99914.53
2023-03-12T07:37:17.200Z,99913.69
2023-03-12T07:40:18.829Z,99910.78
2023-03-12T07:43:21.243Z,99911.63
2023-03-12T07:46:24.237Z,99909.94
2023-03-12T07:49:27.480Z,99919.78
2023-03-12T07:52:29.005Z,99923.34
2023-03-12T07:55:31.504Z,99919.44
2023-03-12T07:58:36.210Z,99923.16
2023-03-12T08:01:37.883Z,99919.44
2023-03-12T08:04:39.595Z,99918.41
2023-03-12T08:07:41.219Z,99915.53
2023-03-12T08:10:42.958Z,99910.09
2023-03-12T08:13:44.577Z,99898.22
2023-03-12T08:16:46.726Z,99898.06
2023-03-12T08:19:48.640Z,99895.13
2023-03-12T08:22:50.629Z,99895.97
2023-03-12T08:25:53.321Z,99896.84
2023-03-12T08:28:54.767Z,99903.13
2023-03-12T08:32:04.689Z,99907.72
2023-03-12T08:35:06.975Z,99913.13
2023-03-12T08:38:08.629Z,99924.84
2023-03-12T08:41:10.350Z,99922.97
2023-03-12T08:44:11.810Z,99923.81
2023-03-12T08:47:13.298Z,99911.94
2023-03-12T08:50:16.965Z,99922.59
2023-03-12T08:53:18.723Z,99920.94
2023-03-12T08:56:20.258Z,99929.91
2023-03-12T08:59:22.327Z,99929.91
2023-03-12T09:02:24.094Z,99934.50
2023-03-12T09:05:28.037Z,99944.31
2023-03-12T09:08:29.548Z,99935.34
2023-03-12T09:11:32.876Z,99936.19
2023-03-12T09:15:02.118Z,99935.34
2023-03-12T09:17:55.999Z,99939.94
2023-03-12T09:20:57.698Z,99932.63
2023-03-12T09:23:59.439Z,99939.09
2023-03-12T09:27:01.768Z,99941.81
2023-03-12T09:30:03.688Z,99932.78
2023-03-12T09:33:05.435Z,99923.13
2023-03-12T09:36:07.126Z,99925.00
2023-03-12T09:39:08.724Z,99910.59
2023-03-12T09:42:37.061Z,99910.44
2023-03-12T09:45:43.329Z,99891.59
2023-03-12T09:48:47.636Z,99891.75
2023-03-12T09:51:54.034Z,99883.59
2023-03-12T09:55:17.381Z,99878.19
2023-03-12T09:58:33.806Z,99846.63
2023-03-12T10:01:37.514Z,99836.13
2023-03-12T10:04:58.500Z,99838.66
2023-03-12T10:08:23.505Z,99819.19
2023-03-12T10:11:28.872Z,99825.38
2023-03-12T10:14:42.310Z,99825.66
2023-03-12T10:17:43.751Z,99834.50
2023-03-12T10:21:17.603Z,99827.41
2023-03-12T10:24:40.690Z,99830.66
2023-03-12T10:27:42.984Z,99827.75
2023-03-12T10:30:55.124Z,99824.91
2023-03-12T10:33:59.560Z,99817.28
2023-03-12T10:37:11.499Z,99811.88
2023-03-12T10:40:16.605Z,99795.28
2023-03-12T10:43:18.097Z,99803.38
2023-03-12T10:46:37.628Z,99793.75
2023-03-12T10:49:39.267Z,99800.19
2023-03-12T10:52:41.470Z,99802.88
2023-03-12T10:55:43.001Z,99802.16
2023-03-12T10:58:49.762Z,99802.34
2023-03-12T11:01:52.469Z,99800.78
2023-03-12T11:04:54.037Z,99799.44
2023-03-12T11:07:56.917Z,99802.28
2023-03-12T11:11:00.422Z,99807.34
2023-03-12T11:14:24.513Z,99800.41
2023-03-12T11:17:28.700Z,99798.19
2023-03-12T11:20:30.586Z,99790.75
2023-03-12T11:23:32.166Z,99777.69
2023-03-12T11:26:57.159Z,99769.19
2023-03-12T11:30:00.203Z,99759.22
2023-03-12T11:33:02.173Z,99758.16
2023-03-12T11:36:23.876Z,99748.84
2023-03-12T11:39:40.653Z,99731.72
2023-03-12T11:42:57.171Z,99728.66
2023-03-12T11:45:58.579Z,99726.97
2023-03-12T11:49:39.310Z,99706.78
2023-03-12T11:53:03.263Z,99709.50
2023-03-12T11:56:19.664Z,99695.94
2023-03-12T11:59:30.005Z,99694.91
2023-03-12T12:02:44.046Z,99685.91
2023-03-12T12:06:23.371Z,99695.94
2023-03-12T12:09:49.040Z,99686.94
2023-03-12T12:13:24.145Z,99674.22
2023-03-12T12:16:34.202Z,99673.19
2023-03-12T12:19:58.944Z,99656.91
2023-03-12T12:23:03.148Z,99657.97
2023-03-12T12:26:18.753Z,99648.13
2023-03-12T12:29:50.043Z,99646.06
2023-03-12T12:33:22.598Z,99649.63
2023-03-12T12:36:27.278Z,99646.91
2023-03-12T12:39:32.454Z,99647.94
2023-03-12T12:42:39.903Z,99651.97
2023-03-12T12:45:44.027Z,99634.69
2023-03-12T12:49:09.928Z,99634.31
2023-03-12T12:52:20.046Z,99628.72
2023-03-12T12:55:32.825Z,99633.94
2023-03-12T12:58:46.147Z,99634.78
2023-03-12T13:01:48.466Z,99627.31
2023-03-12T13:04:50.675Z,99615.47
2023-03-12T13:07:52.755Z,99625.09
2023-03-12T13:11:02.137Z,99628.47
2023-03-12T13:14:10.642Z,99632.88
2023-03-12T13:17:35.496Z,99613.69
2023-03-12T13:21:06.745Z,99599.28
2023-03-12T13:24:29.568Z,99591.97
2023-03-12T13:27:39.806Z,99590.97
2023-03-12T13:30:41.403Z,99577.56
2023-03-12T13:33:48.113Z,99577.41
2023-03-12T13:36:59.281Z,99566.72
2023-03-12T13:40:02.033Z,99579.63
2023-03-12T13:43:09.757Z,99575.22
2023-03-12T13:46:39.190Z,99578.78
2023-03-12T13:49:58.593Z,99569.81
2023-03-12T13:53:16.704Z,99559.13
2023-03-12T13:56:20.444Z,99544.91
2023-03-12T13:59:24.706Z,99548.63
2023-03-12T14:02:43.015Z,99530.47
2023-03-12T14:05:50.859Z,99532.34
2023-03-12T14:09:26.544Z,99516.09
2023-03-12T14:12:36.403Z,99510.66
2023-03-12T14:15:58.606Z,99514.19
2023-03-12T14:19:02.090Z,99522.53
2023-03-12T14:22:07.395Z,99516.09
2023-03-12T14:25:31.177Z,99515.91
2023-03-12T14:28:40.513Z,99514.19
2023-03-12T14:31:42.693Z,99522.19
2023-03-12T14:35:16.520Z,99510.09
2023-03-12T14:38:23.107Z,99507.41
2023-03-12T14:41:29.177Z,99509.94
2023-03-12T14:44:32.523Z,99516.19
2023-03-12T14:47:45.036Z,99517.22
2023-03-12T14:50:48.578Z,99515.38
2023-03-12T14:53:50.802Z,99521.63
2023-03-12T14:56:52.585Z,99531.44
2023-03-12T15:00:01.043Z,99531.28
2023-03-12T15:03:07.660Z,99540.41
2023-03-12T15:06:24.062Z,99536.88
2023-03-12T15:09:28.111Z,99537.91
2023-03-12T15:12:34.953Z,99525.19
2023-03-12T15:15:41.602Z,99543.34
2023-03-12T15:18:43.487Z,99536.56
2023-03-12T15:21:45.373Z,99539.28
2023-03-12T15:24:47.728Z,99537.78
2023-03-12T15:27:59.888Z,99529.84
2023-03-12T15:31:12.539Z,99521.72
2023-03-12T15:34:32.206Z,99530.84
2023-03-12T15:37:38.610Z,99527.69
2023-03-12T15:40:40.240Z,99534.13
2023-03-12T15:43:45.398Z,99537.88
2023-03-12T15:46:56.868Z,99542.44
2023-03-12T15:50:10.070Z,99536.19
2023-03-12T15:53:11.631Z,99529.25
2023-03-12T15:56:13.241Z,99532.81
2023-03-12T15:59:24.181Z,99549.75
2023-03-12T16:02:37.433Z,99546.16
2023-03-12T16:05:40.047Z,99538.03
2023-03-12T16:08:44.391Z,99539.06
2023-03-12T16:11:46.471Z,99539.91
2023-03-12T16:14:48.873Z,99540.75
2023-03-12T16:17:50.352Z,99543.47
2023-03-12T16:20:53.199Z,99546.00
2023-03-12T16:23:54.662Z,99547.88
2023-03-12T16:27:00.008Z,99542.44
2023-03-12T16:30:01.531Z,99542.44
2023-03-12T16:33:08.773Z,99532.44
2023-03-12T16:36:16.559Z,99544.97
2023-03-12T16:39:19.000Z,99545.84
2023-03-12T16:42:21.109Z,99548.72
2023-03-12T16:45:22.805Z,99548.72
2023-03-12T16:48:24.726Z,99547.88
2023-03-12T16:51:28.361Z,99542.44
2023-03-12T16:54:29.845Z,99537.19
2023-03-12T16:57:39.685Z,99549.91
2023-03-12T17:00:41.457Z,99543.66
2023-03-12T17:03:45.482Z,99548.25
2023-03-12T17:06:47.024Z,99563.84
2023-03-12T17:09:48.571Z,99558.59
2023-03-12T17:12:50.677Z,99568.59
2023-03-12T17:15:52.851Z,99567.56
2023-03-12T17:18:54.644Z,99571.16
2023-03-12T17:21:56.427Z,99558.59
2023-03-12T17:24:57.926Z,99561.31
2023-03-12T17:28:00.309Z,99567.41
2023-03-12T17:31:02.039Z,99552.81
2023-03-12T17:34:04.465Z,99555.50
2023-03-12T17:37:05.948Z,99553.84
2023-03-12T17:40:09.578Z,99559.25
2023-03-12T17:43:11.147Z,99561.81
2023-03-12T17:46:12.705Z,99564.31
2023-03-12T17:49:14.171Z,99563.50
2023-03-12T17:52:15.759Z,99566.03
2023-03-12T17:55:17.445Z,99559.56
2023-03-12T17:58:18.938Z,99565.66
2023-03-12T18:01:20.487Z,99570.72
2023-03-12T18:04:21.963Z,99569.34
2023-03-12T18:07:23.544Z,99567.25
2023-03-12T18:10:25.042Z,99578.41
2023-03-12T18:13:26.544Z,99575.34
2023-03-12T18:16:28.158Z,99578.53
2023-03-12T18:19:30.542Z,99584.25
2023-03-12T18:22:32.095Z,99582.22
2023-03-12T18:25:33.910Z,99600.16
2023-03-12T18:28:35.387Z,99590.81
2023-03-12T18:31:36.926Z,99588.09
2023-03-12T18:34:42.076Z,99597.09
2023-03-12T18:37:44.178Z,99590.66
2023-03-12T18:40:45.633Z,99578.75
2023-03-12T18:43:47.127Z,99580.47
2023-03-12T18:46:50.776Z,99569.59
2023-03-12T18:49:54.980Z,99591.31
2023-03-12T18:52:56.561Z,99577.91
2023-03-12T18:55:58.681Z,99589.44
2023-03-12T18:59:00.208Z,99588.41
2023-03-12T19:02:03.933Z,99583.81
2023-03-12T19:05:06.530Z,99598.03
2023-03-12T19:08:08.020Z,99597.19
2023-03-12T19:11:12.088Z,99610.41
2023-03-12T19:14:14.200Z,99610.59
2023-03-12T19:17:15.998Z,99612.09
2023-03-12T19:20:17.979Z,99617.72
2023-03-12T19:23:19.544Z,99616.03
2023-03-12T19:26:21.047Z,99617.03
2023-03-12T19:29:22.597Z,99606.38
2023-03-12T19:32:27.763Z,99606.38
2023-03-12T19:35:38.746Z,99600.75
2023-03-12T19:38:40.570Z,99595.53
2023-03-12T19:41:42.266Z,99584.66
2023-03-12T19:44:43.746Z,99586.53
2023-03-12T19:47:45.266Z,99583.81
2023-03-12T19:50:46.774Z,99573.81
2023-03-12T19:53:48.259Z,99567.50
2023-03-12T19:56:49.817Z,99567.50
2023-03-12T19:59:51.398Z,99569.22
2023-03-12T20:02:53.051Z,99557.53
2023-03-12T20:05:54.877Z,99561.06
2023-03-12T20:08:56.389Z,99556.66
2023-03-12T20:11:57.963Z,99556.50
2023-03-12T20:14:59.445Z,99542.91
2023-03-12T20:18:00.977Z,99544.78
2023-03-12T20:21:02.580Z,99542.91
2023-03-12T20:24:05.046Z,99542.06
2023-03-12T20:27:06.712Z,99540.38
2023-03-12T20:30:09.221Z,99537.66
2023-03-12T20:33:10.734Z,99545.81
2023-03-12T20:36:13.991Z,99551.44
2023-03-12T20:39:15.541Z,99563.97
2023-03-12T20:42:17.011Z,99564.81
2023-03-12T20:45:18.497Z,99573.81
2023-03-12T20:48:19.957Z,99569.22
2023-03-12T20:51:21.439Z,99564.63
2023-03-12T20:54:23.030Z,99569.03
2023-03-12T20:57:24.619Z,99571.72
2023-03-12T21:00:26.185Z,99573.59
2023-03-12T21:03:27.744Z,99567.16
2023-03-12T21:06:29.758Z,99564.47
2023-03-12T21:09:31.302Z,99561.75
2023-03-12T21:12:32.777Z,99558.81
2023-03-12T21:15:34.263Z,99555.09
2023-03-12T21:18:35.794Z,99546.97
2023-03-12T21:21:38.002Z,99549.47
2023-03-12T21:24:39.530Z,99546.56
2023-03-12T21:27:49.848Z,99545.75
2023-03-12T21:30:52.377Z,99546.97
2023-03-12T21:33:57.859Z,99550.88
2023-03-12T21:36:59.450Z,99542.06
2023-03-12T21:40:01.461Z,99531.59
2023-03-12T21:43:03.983Z,99528.00
2023-03-12T21:46:11.093Z,99533.66
2023-03-12T21:49:13.963Z,99525.69
2023-03-12T21:52:15.567Z,99517.72
2023-03-12T21:55:17.535Z,99514.16
2023-03-12T21:58:18.994Z,99507.22
2023-03-12T22:01:20.539Z,99509.94
2023-03-12T22:04:22.542Z,99501.16
2023-03-12T22:07:24.174Z,99492.16
2023-03-12T22:10:25.720Z,99505.72
2023-03-12T22:13:27.285Z,99503.00
2023-03-12T22:16:28.955Z,99498.78
2023-03-12T22:19:30.472Z,99495.25
2023-03-12T22:22:33.430Z,99501.72
2023-03-12T22:25:35.058Z,99494.56
2023-03-12T22:28:36.628Z,99484.59
2023-03-12T22:31:38.388Z,99489.16
2023-03-12T22:34:39.968Z,99473.91
2023-03-12T22:37:44.818Z,99475.78
2023-03-12T22:40:46.549Z,99474.28
2023-03-12T22:43:49.994Z,99474.28
2023-03-12T22:46:52.044Z,99474.47
2023-03-12T22:49:53.551Z,99460.22
2023-03-12T22:52:55.019Z,99459.22
2023-03-12T22:56:07.614Z,99465.47
2023-03-12T22:59:09.096Z,99452.47
2023-03-12T23:02:10.657Z,99451.63
2023-03-12T23:05:12.227Z,99448.09
2023-03-12T23:08:13.718Z,99435.72
2023-03-12T23:11:16.132Z,99440.31
2023-03-12T23:14:18.038Z,99438.81
2023-03-12T23:17:19.590Z,99428.13
2023-03-12T23:20:23.634Z,99421.03
2023-03-12T23:23:26.083Z,99419.53
2023-03-12T23:26:29.065Z,99405.97
2023-03-12T23:29:31.238Z,99417.00
2023-03-12T23:32:34.396Z,99402.78
2023-03-12T23:35:36.026Z,99392.13
2023-03-12T23:38:37.832Z,99396.69
2023-03-12T23:41:39.723Z,99385.22
2023-03-12T23:44:41.265Z,99386.22
2023-03-12T23:47:42.775Z,99384.53
2023-03-12T23:50:44.231Z,99382.84
2023-03-12T23:53:47.922Z,99388.25
2023-03-12T23:56:49.412Z,99383.03
2023-03-12T23:59:50.928Z,99383.22
